sensor_id;sensor_type;location;lat;lon;timestamp;temperature;humidity
15749;DHT22;7976;52.526;13.326;2023-12-20T00:01:38;7.20;99.90
15749;DHT22;7976;52.526;13.326;2023-12-20T00:04:06;7.20;99.90
15749;DHT22;7976;52.526;13.326;2023-12-20T00:06:33;7.20;99.90
15749;DHT22;7976;52.526;13.326;2023-12-20T00:09:01;7.20;99.90
15749;DHT22;7976;52.526;13.326;2023-12-20T00:11:28;7.20;99.90
15749;DHT22;7976;52.526;13.326;2023-12-20T00:13:56;7.20;99.90
15749;DHT22;7976;52.526;13.326;2023-12-20T00:16:22;7.20;99.90
15749;DHT22;7976;52.526;13.326;2023-12-20T00:18:49;7.20;99.90
15749;DHT22;7976;52.526;13.326;2023-12-20T00:21:16;7.20;99.90
15749;DHT22;7976;52.526;13.326;2023-12-20T00:23:43;7.20;99.90
15749;DHT22;7976;52.526;13.326;2023-12-20T00:26:11;7.20;99.90
15749;DHT22;7976;52.526;13.326;2023-12-20T00:28:38;7.20;99.90
15749;DHT22;7976;52.526;13.326;2023-12-20T00:31:05;7.20;99.90
15749;DHT22;7976;52.526;13.326;2023-12-20T00:33:32;7.10;99.90
15749;DHT22;7976;52.526;13.326;2023-12-20T00:35:59;7.10;99.90
15749;DHT22;7976;52.526;13.326;2023-12-20T00:38:25;7.10;99.90
15749;DHT22;7976;52.526;13.326;2023-12-20T00:40:52;7.10;99.90
15749;DHT22;7976;52.526;13.326;2023-12-20T00:43:20;7.10;99.90
15749;DHT22;7976;52.526;13.326;2023-12-20T00:45:47;7.10;99.90
15749;DHT22;7976;52.526;13.326;2023-12-20T00:48:14;7.10;99.90
15749;DHT22;7976;52.526;13.326;2023-12-20T00:50:41;7.10;99.90
15749;DHT22;7976;52.526;13.326;2023-12-20T00:53:08;7.10;99.90
15749;DHT22;7976;52.526;13.326;2023-12-20T00:55:35;7.10;99.90
15749;DHT22;7976;52.526;13.326;2023-12-20T00:58:02;7.10;99.90
15749;DHT22;7976;52.526;13.326;2023-12-20T01:00:30;7.10;99.90
15749;DHT22;7976;52.526;13.326;2023-12-20T01:02:57;7.10;99.90
15749;DHT22;7976;52.526;13.326;2023-12-20T01:05:24;7.10;99.90
15749;DHT22;7976;52.526;13.326;2023-12-20T01:07:51;7.10;99.90
15749;DHT22;7976;52.526;13.326;2023-12-20T01:10:18;7.10;99.90
15749;DHT22;7976;52.526;13.326;2023-12-20T01:12:45;7.10;99.90
15749;DHT22;7976;52.526;13.326;2023-12-20T01:15:11;7.10;99.90
15749;DHT22;7976;52.526;13.326;2023-12-20T01:17:40;7.10;99.90
15749;DHT22;7976;52.526;13.326;2023-12-20T01:20:07;7.10;99.90
15749;DHT22;7976;52.526;13.326;2023-12-20T01:22:35;7.10;99.90
15749;DHT22;7976;52.526;13.326;2023-12-20T01:25:01;7.10;99.90
15749;DHT22;7976;52.526;13.326;2023-12-20T01:27:29;7.10;99.90
15749;DHT22;7976;52.526;13.326;2023-12-20T01:29:56;7.10;99.90
15749;DHT22;7976;52.526;13.326;2023-12-20T01:32:23;7.10;99.90
15749;DHT22;7976;52.526;13.326;2023-12-20T01:34:51;7.10;99.90
15749;DHT22;7976;52.526;13.326;2023-12-20T01:37:18;7.10;99.90
15749;DHT22;7976;52.526;13.326;2023-12-20T01:39:45;7.10;99.90
15749;DHT22;7976;52.526;13.326;2023-12-20T01:42:12;7.10;99.90
15749;DHT22;7976;52.526;13.326;2023-12-20T01:44:39;7.10;99.90
15749;DHT22;7976;52.526;13.326;2023-12-20T01:47:05;7.10;99.90
15749;DHT22;7976;52.526;13.326;2023-12-20T01:49:33;7.10;99.90
15749;DHT22;7976;52.526;13.326;2023-12-20T01:52:01;7.10;99.90
15749;DHT22;7976;52.526;13.326;2023-12-20T01:54:29;7.10;99.90
15749;DHT22;7976;52.526;13.326;2023-12-20T01:56:56;7.10;99.90
15749;DHT22;7976;52.526;13.326;2023-12-20T01:59:24;7.10;99.90
15749;DHT22;7976;52.526;13.326;2023-12-20T02:01:50;7.10;99.90
15749;DHT22;7976;52.526;13.326;2023-12-20T02:04:17;7.20;99.90
15749;DHT22;7976;52.526;13.326;2023-12-20T02:06:46;7.20;99.90
15749;DHT22;7976;52.526;13.326;2023-12-20T02:09:15;7.10;99.90
15749;DHT22;7976;52.526;13.326;2023-12-20T02:11:42;7.10;99.90
15749;DHT22;7976;52.526;13.326;2023-12-20T02:14:09;7.20;99.90
15749;DHT22;7976;52.526;13.326;2023-12-20T02:16:36;7.10;99.90
15749;DHT22;7976;52.526;13.326;2023-12-20T02:19:04;7.00;99.90
15749;DHT22;7976;52.526;13.326;2023-12-20T02:21:41;7.00;99.90
15749;DHT22;7976;52.526;13.326;2023-12-20T02:24:08;7.00;99.90
15749;DHT22;7976;52.526;13.326;2023-12-20T02:26:35;7.00;99.90
15749;DHT22;7976;52.526;13.326;2023-12-20T02:29:02;7.00;99.90
15749;DHT22;7976;52.526;13.326;2023-12-20T02:31:29;7.00;99.90
15749;DHT22;7976;52.526;13.326;2023-12-20T02:33:56;7.00;99.90
15749;DHT22;7976;52.526;13.326;2023-12-20T02:36:22;7.10;99.90
15749;DHT22;7976;52.526;13.326;2023-12-20T02:38:51;7.10;99.90
15749;DHT22;7976;52.526;13.326;2023-12-20T02:41:17;7.10;99.90
15749;DHT22;7976;52.526;13.326;2023-12-20T02:43:45;7.00;99.90
15749;DHT22;7976;52.526;13.326;2023-12-20T02:46:12;7.10;99.90
15749;DHT22;7976;52.526;13.326;2023-12-20T02:48:42;7.00;99.90
15749;DHT22;7976;52.526;13.326;2023-12-20T02:51:09;7.00;99.90
15749;DHT22;7976;52.526;13.326;2023-12-20T02:53:36;7.00;99.90
15749;DHT22;7976;52.526;13.326;2023-12-20T02:56:04;7.00;99.90
15749;DHT22;7976;52.526;13.326;2023-12-20T02:58:32;7.00;99.90
15749;DHT22;7976;52.526;13.326;2023-12-20T03:00:59;7.00;99.90
15749;DHT22;7976;52.526;13.326;2023-12-20T03:03:25;7.00;99.90
15749;DHT22;7976;52.526;13.326;2023-12-20T03:05:55;7.00;99.90
15749;DHT22;7976;52.526;13.326;2023-12-20T03:08:21;7.00;99.90
15749;DHT22;7976;52.526;13.326;2023-12-20T03:10:48;7.00;99.90
15749;DHT22;7976;52.526;13.326;2023-12-20T03:13:16;7.00;99.90
15749;DHT22;7976;52.526;13.326;2023-12-20T03:15:43;7.00;99.90
15749;DHT22;7976;52.526;13.326;2023-12-20T03:18:10;7.00;99.90
15749;DHT22;7976;52.526;13.326;2023-12-20T03:20:37;7.00;99.90
15749;DHT22;7976;52.526;13.326;2023-12-20T03:23:04;7.00;99.90
15749;DHT22;7976;52.526;13.326;2023-12-20T03:25:31;7.00;99.90
15749;DHT22;7976;52.526;13.326;2023-12-20T03:27:57;6.90;99.90
15749;DHT22;7976;52.526;13.326;2023-12-20T03:30:25;6.90;99.90
15749;DHT22;7976;52.526;13.326;2023-12-20T03:32:52;6.90;99.90
15749;DHT22;7976;52.526;13.326;2023-12-20T03:35:19;6.90;99.90
15749;DHT22;7976;52.526;13.326;2023-12-20T03:37:46;6.80;99.90
15749;DHT22;7976;52.526;13.326;2023-12-20T03:40:13;6.90;99.90
15749;DHT22;7976;52.526;13.326;2023-12-20T03:42:40;6.90;99.90
15749;DHT22;7976;52.526;13.326;2023-12-20T03:45:08;6.90;99.90
15749;DHT22;7976;52.526;13.326;2023-12-20T03:47:36;6.90;99.90
15749;DHT22;7976;52.526;13.326;2023-12-20T03:50:04;6.80;99.90
15749;DHT22;7976;52.526;13.326;2023-12-20T03:52:32;6.80;99.90
15749;DHT22;7976;52.526;13.326;2023-12-20T03:54:58;6.80;99.90
15749;DHT22;7976;52.526;13.326;2023-12-20T03:57:25;6.80;99.90
15749;DHT22;7976;52.526;13.326;2023-12-20T03:59:52;6.70;99.90
15749;DHT22;7976;52.526;13.326;2023-12-20T04:02:19;6.70;99.90
15749;DHT22;7976;52.526;13.326;2023-12-20T04:04:47;6.70;99.90
15749;DHT22;7976;52.526;13.326;2023-12-20T04:07:14;6.60;99.90
15749;DHT22;7976;52.526;13.326;2023-12-20T04:09:41;6.60;99.90
15749;DHT22;7976;52.526;13.326;2023-12-20T04:12:08;6.60;99.90
15749;DHT22;7976;52.526;13.326;2023-12-20T04:14:35;6.60;99.90
15749;DHT22;7976;52.526;13.326;2023-12-20T04:17:02;6.60;99.90
15749;DHT22;7976;52.526;13.326;2023-12-20T04:19:29;6.60;99.90
15749;DHT22;7976;52.526;13.326;2023-12-20T04:21:57;6.50;99.90
15749;DHT22;7976;52.526;13.326;2023-12-20T04:24:24;6.50;99.90
15749;DHT22;7976;52.526;13.326;2023-12-20T04:26:50;6.40;99.90
15749;DHT22;7976;52.526;13.326;2023-12-20T04:29:17;6.40;99.90
15749;DHT22;7976;52.526;13.326;2023-12-20T04:31:44;6.30;99.90
15749;DHT22;7976;52.526;13.326;2023-12-20T04:34:11;6.30;99.90
15749;DHT22;7976;52.526;13.326;2023-12-20T04:36:40;6.30;99.90
15749;DHT22;7976;52.526;13.326;2023-12-20T04:39:08;6.30;99.90
15749;DHT22;7976;52.526;13.326;2023-12-20T04:41:35;6.30;99.90
15749;DHT22;7976;52.526;13.326;2023-12-20T04:44:00;6.30;99.90
15749;DHT22;7976;52.526;13.326;2023-12-20T04:46:27;6.20;99.90
15749;DHT22;7976;52.526;13.326;2023-12-20T04:48:54;6.20;99.90
15749;DHT22;7976;52.526;13.326;2023-12-20T04:51:21;6.20;99.90
15749;DHT22;7976;52.526;13.326;2023-12-20T04:53:48;6.20;99.90
15749;DHT22;7976;52.526;13.326;2023-12-20T04:56:16;6.20;99.90
15749;DHT22;7976;52.526;13.326;2023-12-20T04:58:43;6.10;99.90
15749;DHT22;7976;52.526;13.326;2023-12-20T05:01:13;6.10;99.90
15749;DHT22;7976;52.526;13.326;2023-12-20T05:03:41;6.10;99.90
15749;DHT22;7976;52.526;13.326;2023-12-20T05:06:08;6.10;99.90
15749;DHT22;7976;52.526;13.326;2023-12-20T05:08:35;6.10;99.90
15749;DHT22;7976;52.526;13.326;2023-12-20T05:11:03;6.10;99.90
15749;DHT22;7976;52.526;13.326;2023-12-20T05:13:32;6.10;99.90
15749;DHT22;7976;52.526;13.326;2023-12-20T05:15:59;6.10;99.90
15749;DHT22;7976;52.526;13.326;2023-12-20T05:18:26;6.10;99.90
15749;DHT22;7976;52.526;13.326;2023-12-20T05:20:52;6.10;99.90
15749;DHT22;7976;52.526;13.326;2023-12-20T05:23:19;6.10;99.90
15749;DHT22;7976;52.526;13.326;2023-12-20T05:25:46;6.00;99.90
15749;DHT22;7976;52.526;13.326;2023-12-20T05:28:14;6.00;99.90
15749;DHT22;7976;52.526;13.326;2023-12-20T05:30:43;5.90;99.90
15749;DHT22;7976;52.526;13.326;2023-12-20T05:33:09;5.80;99.90
15749;DHT22;7976;52.526;13.326;2023-12-20T05:35:36;5.80;99.90
15749;DHT22;7976;52.526;13.326;2023-12-20T05:38:03;5.80;99.90
15749;DHT22;7976;52.526;13.326;2023-12-20T05:40:30;5.70;99.90
15749;DHT22;7976;52.526;13.326;2023-12-20T05:42:57;5.70;99.90
15749;DHT22;7976;52.526;13.326;2023-12-20T05:45:24;5.70;99.90
15749;DHT22;7976;52.526;13.326;2023-12-20T05:47:53;5.70;99.90
15749;DHT22;7976;52.526;13.326;2023-12-20T05:50:20;5.60;99.90
15749;DHT22;7976;52.526;13.326;2023-12-20T05:52:47;5.60;99.90
15749;DHT22;7976;52.526;13.326;2023-12-20T05:55:16;5.60;99.90
15749;DHT22;7976;52.526;13.326;2023-12-20T05:57:42;5.50;99.90
15749;DHT22;7976;52.526;13.326;2023-12-20T06:00:10;5.50;99.90
15749;DHT22;7976;52.526;13.326;2023-12-20T06:02:39;5.50;99.90
15749;DHT22;7976;52.526;13.326;2023-12-20T06:05:07;5.50;99.90
15749;DHT22;7976;52.526;13.326;2023-12-20T06:07:34;5.50;99.90
15749;DHT22;7976;52.526;13.326;2023-12-20T06:10:01;5.50;99.90
15749;DHT22;7976;52.526;13.326;2023-12-20T06:12:28;5.50;99.90
15749;DHT22;7976;52.526;13.326;2023-12-20T06:14:57;5.50;99.90
15749;DHT22;7976;52.526;13.326;2023-12-20T06:17:24;5.50;99.90
15749;DHT22;7976;52.526;13.326;2023-12-20T06:19:51;5.50;99.90
15749;DHT22;7976;52.526;13.326;2023-12-20T06:22:19;5.50;99.90
15749;DHT22;7976;52.526;13.326;2023-12-20T06:24:46;5.50;99.90
15749;DHT22;7976;52.526;13.326;2023-12-20T06:27:13;5.50;99.90
15749;DHT22;7976;52.526;13.326;2023-12-20T06:29:40;5.50;99.90
15749;DHT22;7976;52.526;13.326;2023-12-20T06:32:08;5.50;99.90
15749;DHT22;7976;52.526;13.326;2023-12-20T06:34:35;5.50;99.90
15749;DHT22;7976;52.526;13.326;2023-12-20T06:37:03;5.60;99.90
15749;DHT22;7976;52.526;13.326;2023-12-20T06:39:32;5.60;99.90
15749;DHT22;7976;52.526;13.326;2023-12-20T06:41:59;5.60;99.90
15749;DHT22;7976;52.526;13.326;2023-12-20T06:44:26;5.60;99.90
15749;DHT22;7976;52.526;13.326;2023-12-20T06:46:53;5.60;99.90
15749;DHT22;7976;52.526;13.326;2023-12-20T06:49:20;5.60;99.90
15749;DHT22;7976;52.526;13.326;2023-12-20T06:51:47;5.60;99.90
15749;DHT22;7976;52.526;13.326;2023-12-20T06:54:14;5.60;99.90
15749;DHT22;7976;52.526;13.326;2023-12-20T06:56:42;5.60;99.90
15749;DHT22;7976;52.526;13.326;2023-12-20T06:59:09;5.60;99.90
15749;DHT22;7976;52.526;13.326;2023-12-20T07:01:35;5.60;99.90
15749;DHT22;7976;52.526;13.326;2023-12-20T07:04:03;5.60;99.90
15749;DHT22;7976;52.526;13.326;2023-12-20T07:06:30;5.60;99.90
15749;DHT22;7976;52.526;13.326;2023-12-20T07:08:57;5.60;99.90
15749;DHT22;7976;52.526;13.326;2023-12-20T07:11:24;5.60;99.90
15749;DHT22;7976;52.526;13.326;2023-12-20T07:13:53;5.60;99.90
15749;DHT22;7976;52.526;13.326;2023-12-20T07:16:19;5.60;99.90
15749;DHT22;7976;52.526;13.326;2023-12-20T07:18:46;5.60;99.90
15749;DHT22;7976;52.526;13.326;2023-12-20T07:21:13;5.60;99.90
15749;DHT22;7976;52.526;13.326;2023-12-20T07:23:41;5.70;99.90
15749;DHT22;7976;52.526;13.326;2023-12-20T07:26:08;5.60;99.90
15749;DHT22;7976;52.526;13.326;2023-12-20T07:28:35;5.70;99.90
15749;DHT22;7976;52.526;13.326;2023-12-20T07:31:03;5.70;99.90
15749;DHT22;7976;52.526;13.326;2023-12-20T07:33:30;5.70;99.90
15749;DHT22;7976;52.526;13.326;2023-12-20T07:35:57;5.60;99.90
15749;DHT22;7976;52.526;13.326;2023-12-20T07:38:26;5.70;99.90
15749;DHT22;7976;52.526;13.326;2023-12-20T07:40:53;5.70;99.90
15749;DHT22;7976;52.526;13.326;2023-12-20T07:43:19;5.70;99.90
15749;DHT22;7976;52.526;13.326;2023-12-20T07:45:47;5.70;99.90
15749;DHT22;7976;52.526;13.326;2023-12-20T07:48:15;5.70;99.90
15749;DHT22;7976;52.526;13.326;2023-12-20T07:50:42;5.70;99.90
15749;DHT22;7976;52.526;13.326;2023-12-20T07:53:09;5.70;99.90
15749;DHT22;7976;52.526;13.326;2023-12-20T07:55:36;5.70;99.90
15749;DHT22;7976;52.526;13.326;2023-12-20T07:58:03;5.70;99.90
15749;DHT22;7976;52.526;13.326;2023-12-20T08:00:30;5.70;99.90
15749;DHT22;7976;52.526;13.326;2023-12-20T08:02:57;5.70;99.90
15749;DHT22;7976;52.526;13.326;2023-12-20T08:05:25;5.70;99.90
15749;DHT22;7976;52.526;13.326;2023-12-20T08:07:52;5.80;99.90
15749;DHT22;7976;52.526;13.326;2023-12-20T08:10:19;5.70;99.90
15749;DHT22;7976;52.526;13.326;2023-12-20T08:12:46;5.80;99.90
15749;DHT22;7976;52.526;13.326;2023-12-20T08:15:13;5.80;99.90
15749;DHT22;7976;52.526;13.326;2023-12-20T08:17:40;5.80;99.90
15749;DHT22;7976;52.526;13.326;2023-12-20T08:20:07;5.80;99.90
15749;DHT22;7976;52.526;13.326;2023-12-20T08:22:35;5.80;99.90
15749;DHT22;7976;52.526;13.326;2023-12-20T08:25:03;5.80;99.90
15749;DHT22;7976;52.526;13.326;2023-12-20T08:27:30;5.70;99.90
15749;DHT22;7976;52.526;13.326;2023-12-20T08:29:57;5.70;99.90
15749;DHT22;7976;52.526;13.326;2023-12-20T08:32:25;5.70;99.90
15749;DHT22;7976;52.526;13.326;2023-12-20T08:34:53;5.80;99.90
15749;DHT22;7976;52.526;13.326;2023-12-20T08:37:20;5.80;99.90
15749;DHT22;7976;52.526;13.326;2023-12-20T08:39:48;5.80;99.90
15749;DHT22;7976;52.526;13.326;2023-12-20T08:42:15;5.90;99.90
15749;DHT22;7976;52.526;13.326;2023-12-20T08:44:42;5.90;99.90
15749;DHT22;7976;52.526;13.326;2023-12-20T08:47:09;6.00;99.90
15749;DHT22;7976;52.526;13.326;2023-12-20T08:49:38;6.00;99.90
15749;DHT22;7976;52.526;13.326;2023-12-20T08:52:05;6.10;99.90
15749;DHT22;7976;52.526;13.326;2023-12-20T08:54:32;6.10;99.90
15749;DHT22;7976;52.526;13.326;2023-12-20T08:57:00;6.10;99.90
15749;DHT22;7976;52.526;13.326;2023-12-20T08:59:27;6.10;99.90
15749;DHT22;7976;52.526;13.326;2023-12-20T09:01:54;6.20;99.90
15749;DHT22;7976;52.526;13.326;2023-12-20T09:04:21;6.10;99.90
15749;DHT22;7976;52.526;13.326;2023-12-20T09:06:48;6.20;99.90
15749;DHT22;7976;52.526;13.326;2023-12-20T09:09:15;6.20;99.90
15749;DHT22;7976;52.526;13.326;2023-12-20T09:11:42;6.30;99.90
15749;DHT22;7976;52.526;13.326;2023-12-20T09:14:13;6.30;99.90
15749;DHT22;7976;52.526;13.326;2023-12-20T09:16:40;6.40;99.90
15749;DHT22;7976;52.526;13.326;2023-12-20T09:19:10;6.40;99.90
15749;DHT22;7976;52.526;13.326;2023-12-20T09:21:37;6.40;99.90
15749;DHT22;7976;52.526;13.326;2023-12-20T09:24:17;6.50;99.90
15749;DHT22;7976;52.526;13.326;2023-12-20T09:26:44;6.50;99.90
15749;DHT22;7976;52.526;13.326;2023-12-20T09:29:14;6.50;99.90
15749;DHT22;7976;52.526;13.326;2023-12-20T09:31:41;6.50;99.90
15749;DHT22;7976;52.526;13.326;2023-12-20T09:34:14;6.50;99.90
15749;DHT22;7976;52.526;13.326;2023-12-20T09:36:45;6.50;99.90
15749;DHT22;7976;52.526;13.326;2023-12-20T09:39:13;6.50;99.90
15749;DHT22;7976;52.526;13.326;2023-12-20T09:41:43;6.50;99.90
15749;DHT22;7976;52.526;13.326;2023-12-20T09:44:15;6.50;99.90
15749;DHT22;7976;52.526;13.326;2023-12-20T09:46:45;6.50;99.90
15749;DHT22;7976;52.526;13.326;2023-12-20T09:49:17;6.50;99.90
15749;DHT22;7976;52.526;13.326;2023-12-20T09:51:46;6.50;99.90
15749;DHT22;7976;52.526;13.326;2023-12-20T09:54:14;6.40;99.90
15749;DHT22;7976;52.526;13.326;2023-12-20T09:56:43;6.50;99.90
15749;DHT22;7976;52.526;13.326;2023-12-20T09:59:10;6.50;99.90
15749;DHT22;7976;52.526;13.326;2023-12-20T10:01:40;6.50;99.90
15749;DHT22;7976;52.526;13.326;2023-12-20T10:04:08;6.50;99.90
15749;DHT22;7976;52.526;13.326;2023-12-20T10:06:37;6.50;99.90
15749;DHT22;7976;52.526;13.326;2023-12-20T10:09:05;6.50;99.90
15749;DHT22;7976;52.526;13.326;2023-12-20T10:11:36;6.50;99.90
15749;DHT22;7976;52.526;13.326;2023-12-20T10:14:05;6.50;99.90
15749;DHT22;7976;52.526;13.326;2023-12-20T10:16:34;6.50;99.90
15749;DHT22;7976;52.526;13.326;2023-12-20T10:19:01;6.50;99.90
15749;DHT22;7976;52.526;13.326;2023-12-20T10:21:28;6.60;99.90
15749;DHT22;7976;52.526;13.326;2023-12-20T10:23:55;6.60;99.90
15749;DHT22;7976;52.526;13.326;2023-12-20T10:26:24;6.60;99.90
15749;DHT22;7976;52.526;13.326;2023-12-20T10:28:54;6.60;99.90
15749;DHT22;7976;52.526;13.326;2023-12-20T10:31:26;6.60;99.90
15749;DHT22;7976;52.526;13.326;2023-12-20T10:33:57;6.60;99.90
15749;DHT22;7976;52.526;13.326;2023-12-20T10:36:25;6.60;99.90
15749;DHT22;7976;52.526;13.326;2023-12-20T10:38:55;6.60;99.90
15749;DHT22;7976;52.526;13.326;2023-12-20T10:41:24;6.60;99.90
15749;DHT22;7976;52.526;13.326;2023-12-20T10:43:56;6.60;99.90
15749;DHT22;7976;52.526;13.326;2023-12-20T10:46:26;6.70;99.90
15749;DHT22;7976;52.526;13.326;2023-12-20T10:48:57;6.70;99.90
15749;DHT22;7976;52.526;13.326;2023-12-20T10:51:24;6.70;99.90
15749;DHT22;7976;52.526;13.326;2023-12-20T10:53:53;6.80;99.90
15749;DHT22;7976;52.526;13.326;2023-12-20T10:56:20;6.80;99.90
15749;DHT22;7976;52.526;13.326;2023-12-20T10:58:49;6.80;99.90
15749;DHT22;7976;52.526;13.326;2023-12-20T11:01:18;6.80;99.90
15749;DHT22;7976;52.526;13.326;2023-12-20T11:03:49;6.80;99.90
15749;DHT22;7976;52.526;13.326;2023-12-20T11:06:32;6.70;99.90
15749;DHT22;7976;52.526;13.326;2023-12-20T11:09:10;6.70;99.90
15749;DHT22;7976;52.526;13.326;2023-12-20T11:11:52;6.80;99.90
15749;DHT22;7976;52.526;13.326;2023-12-20T11:14:29;6.80;99.90
15749;DHT22;7976;52.526;13.326;2023-12-20T11:17:06;6.80;99.90
15749;DHT22;7976;52.526;13.326;2023-12-20T11:19:36;6.80;99.90
15749;DHT22;7976;52.526;13.326;2023-12-20T11:22:06;6.80;99.90
15749;DHT22;7976;52.526;13.326;2023-12-20T11:24:33;6.80;99.90
15749;DHT22;7976;52.526;13.326;2023-12-20T11:27:03;6.80;99.90
15749;DHT22;7976;52.526;13.326;2023-12-20T11:29:32;6.80;99.90
15749;DHT22;7976;52.526;13.326;2023-12-20T11:32:02;6.70;99.90
15749;DHT22;7976;52.526;13.326;2023-12-20T11:34:32;6.70;99.90
15749;DHT22;7976;52.526;13.326;2023-12-20T11:37:01;6.60;99.90
15749;DHT22;7976;52.526;13.326;2023-12-20T11:39:30;6.60;99.90
15749;DHT22;7976;52.526;13.326;2023-12-20T11:42:04;6.60;99.90
15749;DHT22;7976;52.526;13.326;2023-12-20T11:44:33;6.60;99.90
15749;DHT22;7976;52.526;13.326;2023-12-20T11:47:00;6.60;99.90
15749;DHT22;7976;52.526;13.326;2023-12-20T11:49:27;6.60;99.90
15749;DHT22;7976;52.526;13.326;2023-12-20T11:51:54;6.60;99.90
15749;DHT22;7976;52.526;13.326;2023-12-20T11:54:25;6.70;99.90
15749;DHT22;7976;52.526;13.326;2023-12-20T11:56:53;6.70;99.90
15749;DHT22;7976;52.526;13.326;2023-12-20T11:59:20;6.70;99.90
15749;DHT22;7976;52.526;13.326;2023-12-20T12:01:50;6.60;99.90
15749;DHT22;7976;52.526;13.326;2023-12-20T12:04:18;6.70;99.90
15749;DHT22;7976;52.526;13.326;2023-12-20T12:06:48;6.70;99.90
15749;DHT22;7976;52.526;13.326;2023-12-20T12:09:15;6.80;99.90
15749;DHT22;7976;52.526;13.326;2023-12-20T12:11:44;6.80;99.90
15749;DHT22;7976;52.526;13.326;2023-12-20T12:14:13;6.80;99.90
15749;DHT22;7976;52.526;13.326;2023-12-20T12:16:41;6.80;99.90
15749;DHT22;7976;52.526;13.326;2023-12-20T12:19:20;6.80;99.90
15749;DHT22;7976;52.526;13.326;2023-12-20T12:21:47;6.80;99.90
15749;DHT22;7976;52.526;13.326;2023-12-20T12:24:15;6.90;99.90
15749;DHT22;7976;52.526;13.326;2023-12-20T12:26:42;6.80;99.90
15749;DHT22;7976;52.526;13.326;2023-12-20T12:29:09;6.80;99.90
15749;DHT22;7976;52.526;13.326;2023-12-20T12:31:37;6.80;99.90
15749;DHT22;7976;52.526;13.326;2023-12-20T12:34:06;6.70;99.90
15749;DHT22;7976;52.526;13.326;2023-12-20T12:36:35;6.70;99.90
15749;DHT22;7976;52.526;13.326;2023-12-20T12:39:05;6.60;99.90
15749;DHT22;7976;52.526;13.326;2023-12-20T12:41:33;6.60;99.90
15749;DHT22;7976;52.526;13.326;2023-12-20T12:44:00;6.50;99.90
15749;DHT22;7976;52.526;13.326;2023-12-20T12:46:27;6.50;99.90
15749;DHT22;7976;52.526;13.326;2023-12-20T12:48:56;6.40;99.90
15749;DHT22;7976;52.526;13.326;2023-12-20T12:51:23;6.40;99.90
15749;DHT22;7976;52.526;13.326;2023-12-20T12:53:50;6.40;99.90
15749;DHT22;7976;52.526;13.326;2023-12-20T12:56:17;6.40;99.90
15749;DHT22;7976;52.526;13.326;2023-12-20T12:58:44;6.40;99.90
15749;DHT22;7976;52.526;13.326;2023-12-20T13:01:11;6.30;99.90
15749;DHT22;7976;52.526;13.326;2023-12-20T13:03:40;6.30;99.90
15749;DHT22;7976;52.526;13.326;2023-12-20T13:06:08;6.30;99.90
15749;DHT22;7976;52.526;13.326;2023-12-20T13:08:37;6.30;99.90
15749;DHT22;7976;52.526;13.326;2023-12-20T13:11:05;6.30;99.90
15749;DHT22;7976;52.526;13.326;2023-12-20T13:13:33;6.30;99.90
15749;DHT22;7976;52.526;13.326;2023-12-20T13:15:59;6.30;99.90
15749;DHT22;7976;52.526;13.326;2023-12-20T13:18:26;6.30;99.90
15749;DHT22;7976;52.526;13.326;2023-12-20T13:20:54;6.20;99.90
15749;DHT22;7976;52.526;13.326;2023-12-20T13:23:22;6.20;99.90
15749;DHT22;7976;52.526;13.326;2023-12-20T13:25:49;6.00;99.90
15749;DHT22;7976;52.526;13.326;2023-12-20T13:28:16;5.80;99.90
15749;DHT22;7976;52.526;13.326;2023-12-20T13:30:43;5.80;99.90
15749;DHT22;7976;52.526;13.326;2023-12-20T13:33:13;5.70;99.90
15749;DHT22;7976;52.526;13.326;2023-12-20T13:35:43;5.70;99.90
15749;DHT22;7976;52.526;13.326;2023-12-20T13:38:10;5.60;99.90
15749;DHT22;7976;52.526;13.326;2023-12-20T13:40:40;5.50;99.90
15749;DHT22;7976;52.526;13.326;2023-12-20T13:43:08;5.50;99.90
15749;DHT22;7976;52.526;13.326;2023-12-20T13:45:36;5.50;99.90
15749;DHT22;7976;52.526;13.326;2023-12-20T13:48:07;5.50;99.90
15749;DHT22;7976;52.526;13.326;2023-12-20T13:50:34;5.50;99.90
15749;DHT22;7976;52.526;13.326;2023-12-20T13:53:01;5.40;99.90
15749;DHT22;7976;52.526;13.326;2023-12-20T13:55:29;5.30;99.90
15749;DHT22;7976;52.526;13.326;2023-12-20T13:57:59;5.30;99.90
15749;DHT22;7976;52.526;13.326;2023-12-20T14:00:26;5.20;99.90
15749;DHT22;7976;52.526;13.326;2023-12-20T14:02:53;5.20;99.90
15749;DHT22;7976;52.526;13.326;2023-12-20T14:05:19;5.20;99.90
15749;DHT22;7976;52.526;13.326;2023-12-20T14:07:48;5.20;99.90
15749;DHT22;7976;52.526;13.326;2023-12-20T14:10:16;5.10;99.90
15749;DHT22;7976;52.526;13.326;2023-12-20T14:12:43;5.20;99.90
15749;DHT22;7976;52.526;13.326;2023-12-20T14:15:12;5.10;99.90
15749;DHT22;7976;52.526;13.326;2023-12-20T14:17:39;5.10;99.90
15749;DHT22;7976;52.526;13.326;2023-12-20T14:20:11;5.10;99.90
15749;DHT22;7976;52.526;13.326;2023-12-20T14:22:39;5.10;99.90
15749;DHT22;7976;52.526;13.326;2023-12-20T14:25:11;5.10;99.90
15749;DHT22;7976;52.526;13.326;2023-12-20T14:27:38;5.10;99.90
15749;DHT22;7976;52.526;13.326;2023-12-20T14:30:07;5.10;99.90
15749;DHT22;7976;52.526;13.326;2023-12-20T14:32:36;5.10;99.90
15749;DHT22;7976;52.526;13.326;2023-12-20T14:35:04;5.10;99.90
15749;DHT22;7976;52.526;13.326;2023-12-20T14:37:32;5.10;99.90
15749;DHT22;7976;52.526;13.326;2023-12-20T14:39:59;5.20;99.90
15749;DHT22;7976;52.526;13.326;2023-12-20T14:42:29;5.20;99.90
15749;DHT22;7976;52.526;13.326;2023-12-20T14:44:57;5.20;99.90
15749;DHT22;7976;52.526;13.326;2023-12-20T14:47:25;5.10;99.90
15749;DHT22;7976;52.526;13.326;2023-12-20T14:49:53;5.20;99.90
15749;DHT22;7976;52.526;13.326;2023-12-20T14:52:20;5.10;99.90
15749;DHT22;7976;52.526;13.326;2023-12-20T14:54:48;5.20;99.90
15749;DHT22;7976;52.526;13.326;2023-12-20T14:57:15;5.10;99.90
15749;DHT22;7976;52.526;13.326;2023-12-20T14:59:43;5.20;99.90
15749;DHT22;7976;52.526;13.326;2023-12-20T15:02:10;5.10;99.90
15749;DHT22;7976;52.526;13.326;2023-12-20T15:04:37;5.20;99.90
15749;DHT22;7976;52.526;13.326;2023-12-20T15:07:05;5.10;99.90
15749;DHT22;7976;52.526;13.326;2023-12-20T15:09:32;5.10;99.90
15749;DHT22;7976;52.526;13.326;2023-12-20T15:11:59;5.20;99.90
15749;DHT22;7976;52.526;13.326;2023-12-20T15:14:26;5.20;99.90
15749;DHT22;7976;52.526;13.326;2023-12-20T15:16:54;5.20;99.90
15749;DHT22;7976;52.526;13.326;2023-12-20T15:19:21;5.20;99.90
15749;DHT22;7976;52.526;13.326;2023-12-20T15:21:48;5.20;99.90
15749;DHT22;7976;52.526;13.326;2023-12-20T15:24:17;5.20;99.90
15749;DHT22;7976;52.526;13.326;2023-12-20T15:26:52;5.20;99.90
15749;DHT22;7976;52.526;13.326;2023-12-20T15:29:19;5.20;99.90
15749;DHT22;7976;52.526;13.326;2023-12-20T15:31:46;5.10;99.90
15749;DHT22;7976;52.526;13.326;2023-12-20T15:34:14;5.10;99.90
15749;DHT22;7976;52.526;13.326;2023-12-20T15:36:42;5.10;99.90
15749;DHT22;7976;52.526;13.326;2023-12-20T15:39:09;5.00;99.90
15749;DHT22;7976;52.526;13.326;2023-12-20T15:41:41;5.00;99.90
15749;DHT22;7976;52.526;13.326;2023-12-20T15:44:08;5.00;99.90
15749;DHT22;7976;52.526;13.326;2023-12-20T15:46:35;4.90;99.90
15749;DHT22;7976;52.526;13.326;2023-12-20T15:49:02;4.90;99.90